sensor_id;sensor_type;location;lat;lon;timestamp;pressure;altitude;pressure_sealevel;temperature;humidity
77311;BME280;66371;52.714;5.074;2023-06-22T00:01:18;102110.00;;;14.96;100.00
77311;BME280;66371;52.714;5.074;2023-06-22T00:03:44;102104.47;;;14.98;100.00
77311;BME280;66371;52.714;5.074;2023-06-22T00:06:09;102101.94;;;14.96;100.00
77311;BME280;66371;52.714;5.074;2023-06-22T00:08:35;102101.44;;;14.93;100.00
77311;BME280;66371;52.714;5.074;2023-06-22T00:11:00;102108.50;;;14.94;100.00
77311;BME280;66371;52.714;5.074;2023-06-22T00:13:25;102102.25;;;14.93;100.00
77311;BME280;66371;52.714;5.074;2023-06-22T00:15:51;102101.44;;;14.93;100.00
77311;BME280;66371;52.714;5.074;2023-06-22T00:18:16;102109.19;;;14.96;100.00
77311;BME280;66371;52.714;5.074;2023-06-22T00:20:42;102111.41;;;15.00;100.00
77311;BME280;66371;52.714;5.074;2023-06-22T00:23:07;102110.25;;;15.03;100.00
77311;BME280;66371;52.714;5.074;2023-06-22T00:25:37;102110.94;;;15.05;100.00
77311;BME280;66371;52.714;5.074;2023-06-22T00:28:03;102115.16;;;15.07;100.00
77311;BME280;66371;52.714;5.074;2023-06-22T00:30:30;102109.13;;;15.13;100.00
77311;BME280;66371;52.714;5.074;2023-06-22T00:32:55;102108.63;;;15.10;100.00
77311;BME280;66371;52.714;5.074;2023-06-22T00:35:21;102110.47;;;15.09;100.00
77311;BME280;66371;52.714;5.074;2023-06-22T00:37:46;102106.25;;;15.07;100.00
77311;BME280;66371;52.714;5.074;2023-06-22T00:40:11;102118.00;;;15.06;100.00
77311;BME280;66371;52.714;5.074;2023-06-22T00:42:38;102117.50;;;15.02;100.00
77311;BME280;66371;52.714;5.074;2023-06-22T00:45:07;102115.94;;;15.00;100.00
77311;BME280;66371;52.714;5.074;2023-06-22T00:47:36;102112.88;;;14.95;100.00
77311;BME280;66371;52.714;5.074;2023-06-22T00:50:03;102119.75;;;14.89;100.00
77311;BME280;66371;52.714;5.074;2023-06-22T00:52:32;102116.50;;;14.86;100.00
77311;BME280;66371;52.714;5.074;2023-06-22T00:55:01;102112.13;;;14.85;100.00
77311;BME280;66371;52.714;5.074;2023-06-22T00:57:27;102117.69;;;14.83;100.00
77311;BME280;66371;52.714;5.074;2023-06-22T00:59:53;102112.28;;;14.83;100.00
77311;BME280;66371;52.714;5.074;2023-06-22T01:02:20;102119.50;;;14.83;100.00
77311;BME280;66371;52.714;5.074;2023-06-22T01:04:45;102111.59;;;14.81;100.00
77311;BME280;66371;52.714;5.074;2023-06-22T01:07:35;102119.97;;;14.78;100.00
77311;BME280;66371;52.714;5.074;2023-06-22T01:10:07;102124.78;;;14.67;100.00
77311;BME280;66371;52.714;5.074;2023-06-22T01:12:40;102123.03;;;14.58;100.00
77311;BME280;66371;52.714;5.074;2023-06-22T01:15:12;102110.84;;;14.54;100.00
77311;BME280;66371;52.714;5.074;2023-06-22T01:17:40;102120.25;;;14.50;100.00
77311;BME280;66371;52.714;5.074;2023-06-22T01:20:08;102113.19;;;14.49;100.00
77311;BME280;66371;52.714;5.074;2023-06-22T01:22:49;102110.19;;;14.52;100.00
77311;BME280;66371;52.714;5.074;2023-06-22T01:25:31;102113.53;;;14.54;100.00
77311;BME280;66371;52.714;5.074;2023-06-22T01:28:12;102106.88;;;14.58;100.00
77311;BME280;66371;52.714;5.074;2023-06-22T01:30:43;102104.19;;;14.58;100.00
77311;BME280;66371;52.714;5.074;2023-06-22T01:33:12;102093.41;;;14.58;100.00
77311;BME280;66371;52.714;5.074;2023-06-22T01:35:39;102090.25;;;14.62;100.00
77311;BME280;66371;52.714;5.074;2023-06-22T01:38:05;102092.47;;;14.67;100.00
77311;BME280;66371;52.714;5.074;2023-06-22T01:40:32;102086.16;;;14.76;100.00
77311;BME280;66371;52.714;5.074;2023-06-22T01:43:00;102097.63;;;14.78;100.00
77311;BME280;66371;52.714;5.074;2023-06-22T01:45:26;102094.47;;;14.82;100.00
77311;BME280;66371;52.714;5.074;2023-06-22T01:47:52;102097.00;;;14.84;100.00
77311;BME280;66371;52.714;5.074;2023-06-22T01:50:17;102100.50;;;14.84;100.00
77311;BME280;66371;52.714;5.074;2023-06-22T01:52:43;102095.97;;;14.85;100.00
77311;BME280;66371;52.714;5.074;2023-06-22T01:55:08;102105.41;;;14.89;100.00
77311;BME280;66371;52.714;5.074;2023-06-22T01:57:34;102099.94;;;14.98;100.00
77311;BME280;66371;52.714;5.074;2023-06-22T02:00:04;102099.47;;;15.03;100.00
77311;BME280;66371;52.714;5.074;2023-06-22T02:02:34;102101.19;;;15.04;100.00
77311;BME280;66371;52.714;5.074;2023-06-22T02:05:06;102098.50;;;15.12;100.00
77311;BME280;66371;52.714;5.074;2023-06-22T02:07:42;102099.38;;;15.12;100.00
77311;BME280;66371;52.714;5.074;2023-06-22T02:10:10;102092.81;;;15.15;100.00
77311;BME280;66371;52.714;5.074;2023-06-22T02:12:38;102092.31;;;15.11;100.00
77311;BME280;66371;52.714;5.074;2023-06-22T02:15:06;102086.91;;;15.11;100.00
77311;BME280;66371;52.714;5.074;2023-06-22T02:17:33;102087.41;;;15.15;100.00
77311;BME280;66371;52.714;5.074;2023-06-22T02:20:02;102086.28;;;15.17;100.00
77311;BME280;66371;52.714;5.074;2023-06-22T02:22:27;102080.03;;;15.17;100.00
77311;BME280;66371;52.714;5.074;2023-06-22T02:24:53;102080.34;;;15.14;100.00
77311;BME280;66371;52.714;5.074;2023-06-22T02:27:18;102076.66;;;15.15;100.00
77311;BME280;66371;52.714;5.074;2023-06-22T02:29:43;102078.19;;;15.17;100.00
77311;BME280;66371;52.714;5.074;2023-06-22T02:32:09;102079.34;;;15.15;100.00
77311;BME280;66371;52.714;5.074;2023-06-22T02:34:35;102078.03;;;15.19;100.00
77311;BME280;66371;52.714;5.074;2023-06-22T02:37:01;102070.78;;;15.19;100.00
77311;BME280;66371;52.714;5.074;2023-06-22T02:39:27;102074.66;;;15.17;100.00
77311;BME280;66371;52.714;5.074;2023-06-22T02:41:53;102074.97;;;15.14;100.00
77311;BME280;66371;52.714;5.074;2023-06-22T02:44:20;102082.34;;;15.12;100.00
77311;BME280;66371;52.714;5.074;2023-06-22T02:46:47;102075.59;;;15.08;100.00
77311;BME280;66371;52.714;5.074;2023-06-22T02:49:12;102077.75;;;15.04;100.00
77311;BME280;66371;52.714;5.074;2023-06-22T02:51:39;102091.88;;;14.98;100.00
77311;BME280;66371;52.714;5.074;2023-06-22T02:54:05;102088.59;;;14.87;100.00
77311;BME280;66371;52.714;5.074;2023-06-22T02:56:31;102097.56;;;14.70;100.00
77311;BME280;66371;52.714;5.074;2023-06-22T02:58:56;102094.25;;;14.58;100.00
77311;BME280;66371;52.714;5.074;2023-06-22T03:01:29;102084.09;;;14.52;100.00
77311;BME280;66371;52.714;5.074;2023-06-22T03:03:58;102078.94;;;14.59;100.00
77311;BME280;66371;52.714;5.074;2023-06-22T03:09:49;102070.41;;;14.89;100.00
77311;BME280;66371;52.714;5.074;2023-06-22T03:12:15;102067.78;;;14.97;100.00
77311;BME280;66371;52.714;5.074;2023-06-22T03:14:40;102057.56;;;15.00;100.00
77311;BME280;66371;52.714;5.074;2023-06-22T03:17:05;102067.00;;;15.04;100.00
77311;BME280;66371;52.714;5.074;2023-06-22T03:19:31;102056.06;;;15.06;100.00
77311;BME280;66371;52.714;5.074;2023-06-22T03:22:00;102055.72;;;15.09;100.00
77311;BME280;66371;52.714;5.074;2023-06-22T03:24:25;102052.22;;;15.08;100.00
77311;BME280;66371;52.714;5.074;2023-06-22T03:26:53;102058.44;;;15.09;100.00
77311;BME280;66371;52.714;5.074;2023-06-22T03:29:19;102059.13;;;15.11;100.00
77311;BME280;66371;52.714;5.074;2023-06-22T03:31:45;102060.63;;;15.13;100.00
77311;BME280;66371;52.714;5.074;2023-06-22T03:34:10;102059.50;;;15.16;100.00
77311;BME280;66371;52.714;5.074;2023-06-22T03:36:36;102057.84;;;15.23;100.00
77311;BME280;66371;52.714;5.074;2023-06-22T03:39:01;102065.28;;;15.29;100.00
77311;BME280;66371;52.714;5.074;2023-06-22T03:41:27;102070.19;;;15.33;100.00
77311;BME280;66371;52.714;5.074;2023-06-22T03:43:52;102071.03;;;15.34;100.00
77311;BME280;66371;52.714;5.074;2023-06-22T03:46:17;102081.50;;;15.37;100.00
77311;BME280;66371;52.714;5.074;2023-06-22T03:48:43;102081.50;;;15.37;100.00
77311;BME280;66371;52.714;5.074;2023-06-22T03:51:08;102076.44;;;15.34;100.00
77311;BME280;66371;52.714;5.074;2023-06-22T03:53:33;102076.59;;;15.32;100.00
77311;BME280;66371;52.714;5.074;2023-06-22T03:55:59;102079.13;;;15.34;100.00
77311;BME280;66371;52.714;5.074;2023-06-22T03:58:25;102071.69;;;15.36;100.00
77311;BME280;66371;52.714;5.074;2023-06-22T04:00:51;102062.25;;;15.32;100.00
77311;BME280;66371;52.714;5.074;2023-06-22T04:03:17;102048.38;;;15.44;100.00
77311;BME280;66371;52.714;5.074;2023-06-22T04:05:46;102048.53;;;15.43;100.00
77311;BME280;66371;52.714;5.074;2023-06-22T04:08:12;102054.72;;;15.35;100.00
77311;BME280;66371;52.714;5.074;2023-06-22T04:10:38;102051.56;;;15.40;100.00
77311;BME280;66371;52.714;5.074;2023-06-22T04:13:03;102049.63;;;15.66;100.00
77311;BME280;66371;52.714;5.074;2023-06-22T04:15:29;102050.41;;;16.08;100.00
77311;BME280;66371;52.714;5.074;2023-06-22T04:17:54;102044.34;;;16.22;100.00
77311;BME280;66371;52.714;5.074;2023-06-22T04:20:20;102044.88;;;16.26;100.00
77311;BME280;66371;52.714;5.074;2023-06-22T04:22:45;102042.50;;;16.31;100.00
77311;BME280;66371;52.714;5.074;2023-06-22T04:25:11;102057.84;;;16.70;100.00
77311;BME280;66371;52.714;5.074;2023-06-22T04:27:36;102052.75;;;16.99;100.00
77311;BME280;66371;52.714;5.074;2023-06-22T04:30:04;102056.13;;;17.09;99.81
77311;BME280;66371;52.714;5.074;2023-06-22T04:32:29;102054.50;;;17.31;97.66
77311;BME280;66371;52.714;5.074;2023-06-22T04:34:55;102058.06;;;17.31;97.33
77311;BME280;66371;52.714;5.074;2023-06-22T04:37:20;102048.19;;;17.08;98.67
77311;BME280;66371;52.714;5.074;2023-06-22T04:39:48;102049.53;;;16.96;99.57
77311;BME280;66371;52.714;5.074;2023-06-22T04:42:14;102048.38;;;16.90;99.96
77311;BME280;66371;52.714;5.074;2023-06-22T04:44:43;102046.38;;;16.92;100.00
77311;BME280;66371;52.714;5.074;2023-06-22T04:47:08;102053.06;;;17.12;100.00
77311;BME280;66371;52.714;5.074;2023-06-22T04:49:35;102054.03;;;17.27;100.00
77311;BME280;66371;52.714;5.074;2023-06-22T04:52:07;102058.06;;;17.48;100.00
77311;BME280;66371;52.714;5.074;2023-06-22T04:54:33;102053.41;;;17.64;100.00
77311;BME280;66371;52.714;5.074;2023-06-22T04:57:03;102049.69;;;17.88;100.00
77311;BME280;66371;52.714;5.074;2023-06-22T04:59:30;102052.06;;;18.13;100.00
77311;BME280;66371;52.714;5.074;2023-06-22T05:02:02;102052.44;;;18.33;100.00
77311;BME280;66371;52.714;5.074;2023-06-22T05:04:29;102045.16;;;18.56;100.00
77311;BME280;66371;52.714;5.074;2023-06-22T05:06:59;102042.31;;;18.72;100.00
77311;BME280;66371;52.714;5.074;2023-06-22T05:09:25;102043.34;;;18.85;100.00
77311;BME280;66371;52.714;5.074;2023-06-22T05:11:51;102042.25;;;18.94;100.00
77311;BME280;66371;52.714;5.074;2023-06-22T05:14:17;102049.44;;;19.02;100.00
77311;BME280;66371;52.714;5.074;2023-06-22T05:16:43;102048.25;;;19.19;100.00
77311;BME280;66371;52.714;5.074;2023-06-22T05:19:09;102044.97;;;19.23;100.00
77311;BME280;66371;52.714;5.074;2023-06-22T05:21:35;102046.03;;;19.37;100.00
77311;BME280;66371;52.714;5.074;2023-06-22T05:24:00;102041.94;;;19.41;100.00
77311;BME280;66371;52.714;5.074;2023-06-22T05:26:28;102051.06;;;19.40;100.00
77311;BME280;66371;52.714;5.074;2023-06-22T05:28:54;102046.47;;;19.55;100.00
77311;BME280;66371;52.714;5.074;2023-06-22T05:31:20;102042.50;;;19.72;100.00
77311;BME280;66371;52.714;5.074;2023-06-22T05:33:46;102039.13;;;19.85;100.00
77311;BME280;66371;52.714;5.074;2023-06-22T05:36:12;102036.81;;;20.03;99.84
77311;BME280;66371;52.714;5.074;2023-06-22T05:38:38;102042.31;;;20.09;98.68
77311;BME280;66371;52.714;5.074;2023-06-22T05:41:04;102050.00;;;20.20;97.65
77311;BME280;66371;52.714;5.074;2023-06-22T05:43:30;102043.00;;;20.32;97.60
77311;BME280;66371;52.714;5.074;2023-06-22T05:45:55;102047.25;;;20.41;96.83
77311;BME280;66371;52.714;5.074;2023-06-22T05:48:21;102048.94;;;20.21;97.00
77311;BME280;66371;52.714;5.074;2023-06-22T05:50:46;102051.09;;;20.11;97.60
77311;BME280;66371;52.714;5.074;2023-06-22T05:53:12;102060.91;;;19.91;98.30
77311;BME280;66371;52.714;5.074;2023-06-22T05:55:40;102057.16;;;19.92;98.80
77311;BME280;66371;52.714;5.074;2023-06-22T05:58:06;102051.72;;;19.92;99.35
77311;BME280;66371;52.714;5.074;2023-06-22T06:00:32;102061.44;;;20.01;98.64
77311;BME280;66371;52.714;5.074;2023-06-22T06:02:58;102060.31;;;20.31;96.83
77311;BME280;66371;52.714;5.074;2023-06-22T06:05:32;102059.53;;;20.58;95.84
77311;BME280;66371;52.714;5.074;2023-06-22T06:07:58;102055.25;;;20.70;94.31
77311;BME280;66371;52.714;5.074;2023-06-22T06:10:24;102053.53;;;20.63;93.21
77311;BME280;66371;52.714;5.074;2023-06-22T06:12:50;102062.78;;;20.47;94.28
77311;BME280;66371;52.714;5.074;2023-06-22T06:15:15;102064.25;;;20.29;94.87
77311;BME280;66371;52.714;5.074;2023-06-22T06:17:48;102056.31;;;20.27;95.27
77311;BME280;66371;52.714;5.074;2023-06-22T06:20:14;102047.59;;;20.32;94.74
77311;BME280;66371;52.714;5.074;2023-06-22T06:22:40;102057.06;;;20.63;94.25
77311;BME280;66371;52.714;5.074;2023-06-22T06:25:05;102060.63;;;20.92;92.80
77311;BME280;66371;52.714;5.074;2023-06-22T06:27:31;102050.53;;;21.07;92.14
77311;BME280;66371;52.714;5.074;2023-06-22T06:29:56;102053.03;;;21.08;91.33
77311;BME280;66371;52.714;5.074;2023-06-22T06:32:22;102054.50;;;21.11;90.88
77311;BME280;66371;52.714;5.074;2023-06-22T06:34:47;102058.94;;;21.18;90.28
77311;BME280;66371;52.714;5.074;2023-06-22T06:37:13;102051.97;;;21.03;90.63
77311;BME280;66371;52.714;5.074;2023-06-22T06:39:38;102046.34;;;21.04;90.66
77311;BME280;66371;52.714;5.074;2023-06-22T06:42:04;102047.81;;;21.07;89.33
77311;BME280;66371;52.714;5.074;2023-06-22T06:44:30;102056.56;;;21.02;88.63
77311;BME280;66371;52.714;5.074;2023-06-22T06:46:55;102050.56;;;21.13;87.74
77311;BME280;66371;52.714;5.074;2023-06-22T06:49:21;102052.59;;;21.39;88.33
77311;BME280;66371;52.714;5.074;2023-06-22T06:51:46;102060.25;;;21.63;86.42
77311;BME280;66371;52.714;5.074;2023-06-22T06:54:11;102061.91;;;21.64;86.58
77311;BME280;66371;52.714;5.074;2023-06-22T06:56:37;102057.41;;;21.77;85.70
77311;BME280;66371;52.714;5.074;2023-06-22T06:59:03;102060.34;;;21.82;84.34
77311;BME280;66371;52.714;5.074;2023-06-22T07:01:28;102060.69;;;21.66;84.20
77311;BME280;66371;52.714;5.074;2023-06-22T07:03:58;102059.50;;;21.75;84.46
77311;BME280;66371;52.714;5.074;2023-06-22T07:06:24;102045.50;;;21.91;84.06
77311;BME280;66371;52.714;5.074;2023-06-22T07:08:54;102045.75;;;22.09;83.13
77311;BME280;66371;52.714;5.074;2023-06-22T07:11:20;102048.31;;;22.24;82.79
77311;BME280;66371;52.714;5.074;2023-06-22T07:13:45;102039.72;;;22.27;81.21
77311;BME280;66371;52.714;5.074;2023-06-22T07:16:10;102040.13;;;22.24;80.99
77311;BME280;66371;52.714;5.074;2023-06-22T07:18:36;102041.19;;;22.23;81.68
77311;BME280;66371;52.714;5.074;2023-06-22T07:21:01;102038.25;;;22.31;82.17
77311;BME280;66371;52.714;5.074;2023-06-22T07:23:28;102037.41;;;22.37;81.91
77311;BME280;66371;52.714;5.074;2023-06-22T07:25:53;102040.78;;;22.39;80.87
77311;BME280;66371;52.714;5.074;2023-06-22T07:28:19;102036.16;;;22.46;80.56
77311;BME280;66371;52.714;5.074;2023-06-22T07:30:44;102029.94;;;22.52;80.79
77311;BME280;66371;52.714;5.074;2023-06-22T07:33:11;102029.94;;;22.52;79.70
77311;BME280;66371;52.714;5.074;2023-06-22T07:35:36;102032.00;;;22.50;79.66
77311;BME280;66371;52.714;5.074;2023-06-22T07:38:02;102035.97;;;22.41;79.48
77311;BME280;66371;52.714;5.074;2023-06-22T07:40:27;102032.41;;;22.47;79.78
77311;BME280;66371;52.714;5.074;2023-06-22T07:42:53;102029.25;;;22.50;79.31
77311;BME280;66371;52.714;5.074;2023-06-22T07:45:18;102020.69;;;22.53;78.50
77311;BME280;66371;52.714;5.074;2023-06-22T07:47:44;102025.75;;;22.63;78.99
77311;BME280;66371;52.714;5.074;2023-06-22T07:50:09;102030.78;;;22.66;78.01
77311;BME280;66371;52.714;5.074;2023-06-22T07:52:35;102040.00;;;22.58;78.27
77311;BME280;66371;52.714;5.074;2023-06-22T07:55:00;102032.84;;;22.50;77.75
77311;BME280;66371;52.714;5.074;2023-06-22T07:57:27;102029.69;;;22.47;78.11
77311;BME280;66371;52.714;5.074;2023-06-22T07:59:59;102020.72;;;22.60;77.63
77311;BME280;66371;52.714;5.074;2023-06-22T08:02:25;102020.91;;;22.65;77.00
77311;BME280;66371;52.714;5.074;2023-06-22T08:04:51;102021.75;;;22.59;77.44
77311;BME280;66371;52.714;5.074;2023-06-22T08:07:16;102030.97;;;22.64;76.88
77311;BME280;66371;52.714;5.074;2023-06-22T08:09:47;102021.09;;;22.70;76.83
77311;BME280;66371;52.714;5.074;2023-06-22T08:12:13;102015.25;;;22.79;76.36
77311;BME280;66371;52.714;5.074;2023-06-22T08:14:39;102017.94;;;22.92;76.26
77311;BME280;66371;52.714;5.074;2023-06-22T08:17:04;102007.63;;;23.07;76.15
77311;BME280;66371;52.714;5.074;2023-06-22T08:19:30;102015.56;;;23.28;nan
77311;BME280;66371;52.714;5.074;2023-06-22T08:21:55;102014.31;;;23.31;74.49
77311;BME280;66371;52.714;5.074;2023-06-22T08:24:21;102010.09;;;23.35;73.70
77311;BME280;66371;52.714;5.074;2023-06-22T08:26:46;102014.53;;;23.29;73.35
77311;BME280;66371;52.714;5.074;2023-06-22T08:29:12;102013.22;;;23.38;73.85
77311;BME280;66371;52.714;5.074;2023-06-22T08:31:37;102010.19;;;23.59;73.93
77311;BME280;66371;52.714;5.074;2023-06-22T08:34:03;102012.22;;;23.77;72.81
77311;BME280;66371;52.714;5.074;2023-06-22T08:36:28;102008.41;;;23.84;72.86
77311;BME280;66371;52.714;5.074;2023-06-22T08:38:55;101999.53;;;23.89;72.02
77311;BME280;66371;52.714;5.074;2023-06-22T08:41:27;102002.25;;;23.95;71.84
77311;BME280;66371;52.714;5.074;2023-06-22T08:43:53;102002.88;;;24.29;72.14
77311;BME280;66371;52.714;5.074;2023-06-22T08:46:19;102006.59;;;24.34;72.03
77311;BME280;66371;52.714;5.074;2023-06-22T08:48:48;101998.19;;;24.36;70.20
77311;BME280;66371;52.714;5.074;2023-06-22T08:51:13;101987.47;;;24.34;70.83
77311;BME280;66371;52.714;5.074;2023-06-22T08:53:39;101987.66;;;24.39;70.46
77311;BME280;66371;52.714;5.074;2023-06-22T09:04:36;101972.84;;;22.77;74.71
77311;BME280;66371;52.714;5.074;2023-06-22T09:07:02;101984.22;;;22.54;75.07
77311;BME280;66371;52.714;5.074;2023-06-22T09:09:28;101973.09;;;22.56;75.04
77311;BME280;66371;52.714;5.074;2023-06-22T09:11:53;101979.63;;;22.61;75.40
77311;BME280;66371;52.714;5.074;2023-06-22T09:14:19;101975.38;;;22.78;74.61
77311;BME280;66371;52.714;5.074;2023-06-22T09:16:44;101984.59;;;22.77;73.96
77311;BME280;66371;52.714;5.074;2023-06-22T09:19:10;101984.63;;;22.64;74.50
77311;BME280;66371;52.714;5.074;2023-06-22T09:21:48;101984.63;;;22.64;74.50
77311;BME280;66371;52.714;5.074;2023-06-22T09:24:14;101973.22;;;23.00;74.94
77311;BME280;66371;52.714;5.074;2023-06-22T09:26:39;101983.06;;;23.07;74.21
77311;BME280;66371;52.714;5.074;2023-06-22T09:29:05;101978.63;;;23.26;74.01
77311;BME280;66371;52.714;5.074;2023-06-22T09:31:31;101980.31;;;23.20;73.48
77311;BME280;66371;52.714;5.074;2023-06-22T09:33:56;101978.09;;;22.78;74.00
77311;BME280;66371;52.714;5.074;2023-06-22T09:36:22;101977.03;;;22.92;73.62
77311;BME280;66371;52.714;5.074;2023-06-22T09:38:48;101978.25;;;23.09;73.16
77311;BME280;66371;52.714;5.074;2023-06-22T09:41:14;101985.78;;;23.07;72.55
77311;BME280;66371;52.714;5.074;2023-06-22T09:43:39;101984.97;;;23.00;72.08
77311;BME280;66371;52.714;5.074;2023-06-22T09:46:04;101980.31;;;23.14;72.33
77311;BME280;66371;52.714;5.074;2023-06-22T09:48:30;101981.63;;;23.05;71.51
77311;BME280;66371;52.714;5.074;2023-06-22T09:50:56;101975.16;;;22.86;70.63
77311;BME280;66371;52.714;5.074;2023-06-22T09:53:22;101972.00;;;22.89;72.19
77311;BME280;66371;52.714;5.074;2023-06-22T09:55:47;101961.50;;;22.99;72.41
77311;BME280;66371;52.714;5.074;2023-06-22T09:58:12;101960.44;;;23.00;72.04
77311;BME280;66371;52.714;5.074;2023-06-22T10:00:38;101962.09;;;23.08;72.64
77311;BME280;66371;52.714;5.074;2023-06-22T10:03:03;101965.66;;;23.08;71.28
77311;BME280;66371;52.714;5.074;2023-06-22T10:05:28;101970.47;;;23.06;70.96
77311;BME280;66371;52.714;5.074;2023-06-22T10:07:54;101968.53;;;23.20;71.34
77311;BME280;66371;52.714;5.074;2023-06-22T10:10:19;101961.81;;;23.22;70.42
77311;BME280;66371;52.714;5.074;2023-06-22T10:12:47;101958.94;;;23.11;71.56
77311;BME280;66371;52.714;5.074;2023-06-22T10:15:13;101970.66;;;23.18;71.67
77311;BME280;66371;52.714;5.074;2023-06-22T10:17:39;101960.16;;;23.34;72.34
77311;BME280;66371;52.714;5.074;2023-06-22T10:20:06;101963.22;;;23.44;70.97
77311;BME280;66371;52.714;5.074;2023-06-22T10:22:42;101954.25;;;23.37;71.73
77311;BME280;66371;52.714;5.074;2023-06-22T10:25:09;101960.25;;;23.52;71.48
77311;BME280;66371;52.714;5.074;2023-06-22T10:27:35;101958.47;;;23.27;71.33
77311;BME280;66371;52.714;5.074;2023-06-22T10:30:01;101948.19;;;23.29;71.45
77311;BME280;66371;52.714;5.074;2023-06-22T10:32:27;101950.06;;;23.28;71.93
77311;BME280;66371;52.714;5.074;2023-06-22T10:34:53;101940.34;;;23.45;70.78
77311;BME280;66371;52.714;5.074;2023-06-22T10:37:19;101934.00;;;23.51;71.24
77311;BME280;66371;52.714;5.074;2023-06-22T10:39:44;101932.19;;;23.39;71.41
77311;BME280;66371;52.714;5.074;2023-06-22T10:42:10;101926.97;;;23.31;70.83
77311;BME280;66371;52.714;5.074;2023-06-22T10:44:35;101931.34;;;23.38;70.70
77311;BME280;66371;52.714;5.074;2023-06-22T10:47:00;101931.19;;;23.27;72.04
77311;BME280;66371;52.714;5.074;2023-06-22T10:49:26;101931.06;;;23.53;71.27
77311;BME280;66371;52.714;5.074;2023-06-22T10:51:51;101931.38;;;23.69;72.00
77311;BME280;66371;52.714;5.074;2023-06-22T10:54:16;101943.09;;;23.76;70.80
77311;BME280;66371;52.714;5.074;2023-06-22T10:56:44;101947.66;;;23.51;70.24
77311;BME280;66371;52.714;5.074;2023-06-22T10:59:09;101944.88;;;23.64;71.01
77311;BME280;66371;52.714;5.074;2023-06-22T11:01:35;101939.28;;;23.84;70.92
77311;BME280;66371;52.714;5.074;2023-06-22T11:04:00;101937.97;;;23.86;69.96
77311;BME280;66371;52.714;5.074;2023-06-22T11:06:25;101935.75;;;23.77;69.19
77311;BME280;66371;52.714;5.074;2023-06-22T11:08:51;101943.19;;;23.94;69.31
77311;BME280;66371;52.714;5.074;2023-06-22T11:11:16;101932.41;;;24.06;67.81
77311;BME280;66371;52.714;5.074;2023-06-22T11:13:45;101937.06;;;24.05;68.00
77311;BME280;66371;52.714;5.074;2023-06-22T11:16:10;101927.25;;;23.91;67.41
77311;BME280;66371;52.714;5.074;2023-06-22T11:18:36;101932.06;;;23.96;67.06
77311;BME280;66371;52.714;5.074;2023-06-22T11:21:01;101939.34;;;24.08;65.81
77311;BME280;66371;52.714;5.074;2023-06-22T11:23:26;101928.69;;;23.94;64.41
77311;BME280;66371;52.714;5.074;2023-06-22T11:25:53;101931.44;;;23.63;66.15
77311;BME280;66371;52.714;5.074;2023-06-22T11:28:18;101930.81;;;23.54;67.51
77311;BME280;66371;52.714;5.074;2023-06-22T11:30:44;101926.91;;;23.44;67.15
77311;BME280;66371;52.714;5.074;2023-06-22T11:33:09;101929.78;;;23.55;67.32
77311;BME280;66371;52.714;5.074;2023-06-22T11:35:34;101921.75;;;23.60;66.21
77311;BME280;66371;52.714;5.074;2023-06-22T11:38:00;101923.72;;;23.53;66.53
77311;BME280;66371;52.714;5.074;2023-06-22T11:40:30;101919.53;;;23.51;65.75
77311;BME280;66371;52.714;5.074;2023-06-22T11:42:58;101926.66;;;23.52;65.99
77311;BME280;66371;52.714;5.074;2023-06-22T11:45:23;101922.50;;;23.43;65.22
77311;BME280;66371;52.714;5.074;2023-06-22T11:47:51;101926.13;;;23.37;65.27
77311;BME280;66371;52.714;5.074;2023-06-22T11:50:17;101918.28;;;23.47;66.60
77311;BME280;66371;52.714;5.074;2023-06-22T11:52:42;101917.34;;;23.66;66.65
77311;BME280;66371;52.714;5.074;2023-06-22T11:55:10;101914.63;;;23.59;65.11
77311;BME280;66371;52.714;5.074;2023-06-22T11:57:37;101902.06;;;23.58;64.59
77311;BME280;66371;52.714;5.074;2023-06-22T12:00:04;101909.63;;;23.56;64.59
77311;BME280;66371;52.714;5.074;2023-06-22T12:02:43;101902.75;;;23.47;63.74
77311;BME280;66371;52.714;5.074;2023-06-22T12:05:10;101902.19;;;23.39;64.44
77311;BME280;66371;52.714;5.074;2023-06-22T12:07:36;101906.31;;;23.48;64.16
77311;BME280;66371;52.714;5.074;2023-06-22T12:10:02;101897.25;;;23.54;65.38
77311;BME280;66371;52.714;5.074;2023-06-22T12:12:28;101887.66;;;23.45;64.21
77311;BME280;66371;52.714;5.074;2023-06-22T12:14:53;101898.59;;;23.38;64.62
77311;BME280;66371;52.714;5.074;2023-06-22T12:17:18;101892.06;;;23.39;64.83
77311;BME280;66371;52.714;5.074;2023-06-22T12:19:44;101899.16;;;23.47;65.50
77311;BME280;66371;52.714;5.074;2023-06-22T12:22:09;101889.09;;;23.47;62.45
77311;BME280;66371;52.714;5.074;2023-06-22T12:24:34;101888.53;;;23.39;62.12
77311;BME280;66371;52.714;5.074;2023-06-22T12:27:00;101889.09;;;23.47;63.44
77311;BME280;66371;52.714;5.074;2023-06-22T12:29:25;101881.56;;;23.43;63.33
77311;BME280;66371;52.714;5.074;2023-06-22T12:31:53;101879.91;;;23.42;63.52
77311;BME280;66371;52.714;5.074;2023-06-22T12:34:18;101875.63;;;23.52;64.16
77311;BME280;66371;52.714;5.074;2023-06-22T12:36:43;101881.00;;;23.34;63.88
77311;BME280;66371;52.714;5.074;2023-06-22T12:39:09;101874.50;;;23.22;64.09
77311;BME280;66371;52.714;5.074;2023-06-22T12:41:34;101868.22;;;23.22;63.87
77311;BME280;66371;52.714;5.074;2023-06-22T12:44:00;101875.56;;;23.21;64.95
77311;BME280;66371;52.714;5.074;2023-06-22T12:46:25;101876.59;;;23.27;64.44
77311;BME280;66371;52.714;5.074;2023-06-22T12:48:51;101879.16;;;23.15;64.27
77311;BME280;66371;52.714;5.074;2023-06-22T12:51:22;101869.47;;;23.19;65.94
77311;BME280;66371;52.714;5.074;2023-06-22T12:53:48;101863.44;;;23.17;65.23